Terminal Aerodrome Forecast
Issued by NWS Portland, OR

Home | Current Version | Previous Version | Text Only | Print | Product List | Glossary On
Versions: 1 2 3 4 5 6 7 8 9 10 11 12 13 14 15 16
000
FTUS46 KPQR 231123
TAFSLE
TAF
KSLE 231123Z 2312/2412 35005KT P6SM SKC
     FM231600 01010KT P6SM SKC
     FM232000 01013G25KT P6SM SKC
     FM240500 03004KT P6SM SKC=

USA.gov is the U.S. government's official web portal to all federal, state and local government web resources and services.